Time;durP1;ratioP1;P1;durP2;ratioP2;P2;SDS_P1;SDS_P2;PMS_P1;PMS_P2;Temp;Humidity;BMP_temperature;BMP_pressure;BME280_temperature;BME280_humidity;BME280_pressure;Samples;Min_cycle;Max_cycle;Signal;HPM_P1;HPM_P2
2021/01/16 00:00:34;;;;;;;19.40;10.65;;;-0.80;99.90;;;;;;5083183;28;20060;-68
2021/01/16 00:03:01;;;;;;;22.88;11.77;;;-0.80;99.90;;;;;;5090180;28;20062;-68
2021/01/16 00:05:29;;;;;;;19.80;10.90;;;-0.80;99.90;;;;;;5092344;28;20048;-68
2021/01/16 00:08:04;;;;;;;20.20;11.73;;;-0.80;99.90;;;;;;5091666;28;20055;-68
2021/01/16 00:10:31;;;;;;;19.58;11.18;;;-0.90;99.90;;;;;;5082134;28;20454;-68
2021/01/16 00:12:58;;;;;;;19.85;10.75;;;-0.90;99.90;;;;;;5092051;28;20043;-68
2021/01/16 00:15:26;;;;;;;18.77;9.88;;;-0.80;99.90;;;;;;5085014;28;20048;-69
2021/01/16 00:18:02;;;;;;;19.17;10.88;;;-0.80;99.90;;;;;;5086390;28;20044;-68
2021/01/16 00:20:31;;;;;;;17.77;10.23;;;-0.80;99.90;;;;;;5086058;28;20125;-68
2021/01/16 00:22:58;;;;;;;22.13;11.25;;;-0.80;99.90;;;;;;5086064;28;20051;-68
2021/01/16 00:25:25;;;;;;;22.60;10.68;;;-0.90;99.90;;;;;;5091734;28;20040;-67
2021/01/16 00:27:52;;;;;;;17.83;10.65;;;-0.80;99.90;;;;;;5081619;28;20441;-68
2021/01/16 00:30:20;;;;;;;18.80;10.18;;;-0.90;99.90;;;;;;5090426;28;20402;-68
2021/01/16 00:32:47;;;;;;;17.25;9.77;;;-0.80;99.90;;;;;;5081617;28;20055;-68
2021/01/16 00:35:17;;;;;;;19.23;10.13;;;-0.80;99.90;;;;;;5088889;28;20048;-68
2021/01/16 00:37:46;;;;;;;22.45;10.93;;;-0.80;99.90;;;;;;5091436;28;20453;-67
2021/01/16 00:40:16;;;;;;;18.27;10.27;;;-0.90;99.90;;;;;;5091447;28;20123;-68
2021/01/16 00:42:44;;;;;;;17.67;10.32;;;-0.80;99.90;;;;;;5087275;28;20378;-68
2021/01/16 00:45:12;;;;;;;21.35;10.40;;;-0.80;99.90;;;;;;5091881;28;20044;-69
2021/01/16 00:47:40;;;;;;;16.52;10.32;;;-0.80;99.90;;;;;;5089668;28;20054;-68
2021/01/16 00:50:13;;;;;;;20.55;10.60;;;-0.80;99.90;;;;;;5080527;28;20503;-68
2021/01/16 00:52:40;;;;;;;20.48;11.07;;;-0.80;99.90;;;;;;5090057;28;20061;-67
2021/01/16 00:55:08;;;;;;;18.05;10.70;;;-0.80;99.90;;;;;;5090957;28;20043;-68
2021/01/16 00:57:35;;;;;;;17.15;10.25;;;-0.90;99.90;;;;;;5071905;28;20040;-68
2021/01/16 01:00:05;;;;;;;18.48;10.25;;;-0.80;99.90;;;;;;5091010;28;20121;-69
2021/01/16 01:02:34;;;;;;;18.58;10.55;;;-0.80;99.90;;;;;;5088979;28;20048;-68
2021/01/16 01:05:01;;;;;;;16.30;9.43;;;-0.80;99.90;;;;;;5090896;28;20123;-68
2021/01/16 01:07:27;;;;;;;18.40;9.98;;;-0.80;99.90;;;;;;5072433;28;20051;-68
2021/01/16 01:09:54;;;;;;;17.42;9.82;;;-0.90;99.90;;;;;;5089678;28;20051;-68
2021/01/16 01:12:20;;;;;;;18.25;10.32;;;-0.90;99.90;;;;;;5090259;28;20123;-68
2021/01/16 01:14:46;;;;;;;17.98;10.60;;;-0.90;99.90;;;;;;5089198;28;20040;-68
2021/01/16 01:17:17;;;;;;;19.02;10.20;;;-0.90;99.90;;;;;;5090631;28;20514;-68
2021/01/16 01:19:44;;;;;;;19.05;10.55;;;-0.80;99.90;;;;;;5090677;28;20063;-68
2021/01/16 01:22:11;;;;;;;18.52;10.68;;;-0.80;99.90;;;;;;5090099;28;20047;-68
2021/01/16 01:24:38;;;;;;;19.25;10.95;;;-0.80;99.90;;;;;;5090925;28;20135;-68
2021/01/16 01:27:06;;;;;;;22.10;11.27;;;-0.80;99.90;;;;;;5072630;28;20047;-67
2021/01/16 01:29:33;;;;;;;17.75;10.02;;;-0.80;99.90;;;;;;5091330;28;20135;-68
2021/01/16 01:32:00;;;;;;;19.40;10.65;;;-0.80;99.90;;;;;;5090750;28;20454;-68
2021/01/16 01:34:27;;;;;;;22.70;12.05;;;-0.90;99.90;;;;;;5079632;28;20052;-68
2021/01/16 01:36:53;;;;;;;21.10;11.75;;;-0.80;99.90;;;;;;5086167;28;20040;-68
2021/01/16 01:39:19;;;;;;;21.10;10.95;;;-0.90;99.90;;;;;;5089655;28;20597;-68
2021/01/16 01:41:46;;;;;;;18.95;10.68;;;-0.80;99.90;;;;;;5089974;28;20051;-68
2021/01/16 01:44:12;;;;;;;17.35;9.32;;;-0.80;99.90;;;;;;5072332;28;20048;-69
2021/01/16 01:46:39;;;;;;;20.75;10.30;;;-0.90;99.90;;;;;;5082978;28;20056;-67
2021/01/16 01:49:06;;;;;;;21.08;12.30;;;-0.80;99.90;;;;;;5085312;28;20130;-68
2021/01/16 01:51:35;;;;;;;23.15;12.30;;;-0.80;99.90;;;;;;5089623;28;20100;-68
2021/01/16 01:54:02;;;;;;;21.17;11.18;;;-0.90;99.90;;;;;;5092626;28;20048;-68
2021/01/16 01:56:29;;;;;;;19.55;10.93;;;-0.90;99.90;;;;;;5093888;28;20044;-67
2021/01/16 01:58:59;;;;;;;19.42;11.35;;;-0.90;99.90;;;;;;5070822;28;20442;-67
2021/01/16 02:01:28;;;;;;;22.23;11.43;;;-0.80;99.90;;;;;;5092345;28;20074;-67
2021/01/16 02:03:59;;;;;;;20.35;12.02;;;-0.80;99.90;;;;;;5093279;28;20079;-67
2021/01/16 02:06:27;;;;;;;24.80;12.85;;;-0.80;99.90;;;;;;5088733;28;20050;-69
2021/01/16 02:08:56;;;;;;;24.23;12.75;;;-0.70;99.90;;;;;;5094308;28;20048;-68
2021/01/16 02:11:24;;;;;;;23.35;13.10;;;-0.70;99.90;;;;;;5093377;28;20393;-68
2021/01/16 02:13:50;;;;;;;22.67;12.43;;;-0.70;99.90;;;;;;5094485;28;20370;-68
2021/01/16 02:16:48;;;;;;;27.20;13.98;;;-0.70;99.90;;;;;;5092027;28;20490;-68
2021/01/16 02:19:26;;;;;;;25.98;13.57;;;-0.70;99.90;;;;;;5077951;28;20040;-68
2021/01/16 02:21:53;;;;;;;23.17;12.35;;;-0.80;99.90;;;;;;5090404;28;20779;-68
2021/01/16 02:24:28;;;;;;;23.98;13.48;;;-0.80;99.90;;;;;;5093837;28;20052;-68
2021/01/16 02:27:16;;;;;;;24.83;13.30;;;-0.80;99.90;;;;;;5075372;28;20059;-67
2021/01/16 02:29:43;;;;;;;25.05;14.02;;;-0.80;99.90;;;;;;5094312;28;20395;-67
2021/01/16 02:32:10;;;;;;;24.30;13.63;;;-0.80;99.90;;;;;;5093005;28;20046;-69
2021/01/16 02:34:41;;;;;;;24.23;13.50;;;-0.70;99.90;;;;;;5093082;28;20066;-68
2021/01/16 02:37:14;;;;;;;26.23;13.55;;;-0.80;99.90;;;;;;5093588;28;20043;-68
2021/01/16 02:40:06;;;;;;;24.58;14.52;;;-0.80;99.90;;;;;;5091144;28;20048;-67
2021/01/16 02:42:41;;;;;;;24.20;13.27;;;-0.80;99.90;;;;;;5091227;28;20445;-67
2021/01/16 02:45:13;;;;;;;28.33;13.88;;;-0.70;99.90;;;;;;5092782;28;20044;-67
2021/01/16 02:47:48;;;;;;;23.77;14.15;;;-0.60;99.90;;;;;;5091284;28;20040;-67
2021/01/16 02:50:25;;;;;;;28.42;15.13;;;-0.70;99.90;;;;;;5092788;28;20047;-68
2021/01/16 02:52:56;;;;;;;28.85;15.65;;;-0.70;99.90;;;;;;5089414;28;20044;-67
2021/01/16 02:55:22;;;;;;;26.63;14.82;;;-0.70;99.90;;;;;;5093339;28;20048;-67
2021/01/16 02:57:49;;;;;;;30.27;14.95;;;-0.70;99.90;;;;;;5090657;28;20394;-68
2021/01/16 03:00:21;;;;;;;29.13;14.75;;;-0.70;99.90;;;;;;5091409;28;20040;-68
2021/01/16 03:02:47;;;;;;;27.55;14.30;;;-0.70;99.90;;;;;;5093067;28;20067;-68
2021/01/16 03:05:17;;;;;;;26.85;14.52;;;-0.70;99.90;;;;;;5073747;28;20083;-68
2021/01/16 03:07:45;;;;;;;26.70;14.10;;;-0.70;99.90;;;;;;5093464;28;20112;-68
2021/01/16 03:10:11;;;;;;;25.85;14.10;;;-0.70;99.90;;;;;;5093541;28;20044;-68
2021/01/16 03:12:38;;;;;;;23.35;13.75;;;-0.70;99.90;;;;;;5093409;28;20094;-69
2021/01/16 03:15:15;;;;;;;28.70;14.32;;;-0.70;99.90;;;;;;5093164;28;20502;-68
2021/01/16 03:17:42;;;;;;;29.73;14.40;;;-0.80;99.90;;;;;;5088551;28;20044;-68
2021/01/16 03:20:10;;;;;;;27.55;14.73;;;-0.80;99.90;;;;;;5091912;28;20074;-67
2021/01/16 03:22:36;;;;;;;29.42;14.45;;;-0.70;99.90;;;;;;5073526;28;20390;-66
2021/01/16 03:25:03;;;;;;;28.60;14.75;;;-0.70;99.90;;;;;;5091421;28;20498;-66
2021/01/16 03:27:30;;;;;;;27.67;14.45;;;-0.70;99.90;;;;;;5088428;28;20051;-66
2021/01/16 03:29:57;;;;;;;27.67;14.27;;;-0.60;99.90;;;;;;5092370;28;20044;-67
2021/01/16 03:32:24;;;;;;;27.95;14.73;;;-0.70;99.90;;;;;;5092346;28;20059;-67
2021/01/16 03:34:50;;;;;;;25.42;14.43;;;-0.70;99.90;;;;;;5091874;28;20504;-68
2021/01/16 03:37:18;;;;;;;28.63;15.30;;;-0.70;99.90;;;;;;5092469;28;20433;-68
2021/01/16 03:39:48;;;;;;;26.55;14.18;;;-0.70;99.90;;;;;;5092960;28;20059;-68
2021/01/16 03:42:15;;;;;;;24.90;14.70;;;-0.80;99.90;;;;;;5092725;28;20135;-69
2021/01/16 03:44:42;;;;;;;31.50;14.95;;;-0.80;99.90;;;;;;5090925;28;20048;-68
2021/01/16 03:47:09;;;;;;;27.20;14.13;;;-0.90;99.90;;;;;;5092227;28;20044;-68
2021/01/16 03:49:36;;;;;;;27.38;14.02;;;-0.80;99.90;;;;;;5091871;28;20048;-67
2021/01/16 03:52:04;;;;;;;25.75;15.00;;;-0.80;99.90;;;;;;5091017;28;20087;-68
2021/01/16 03:54:31;;;;;;;26.55;14.23;;;-0.80;99.90;;;;;;5092466;28;20059;-68
2021/01/16 03:56:58;;;;;;;25.92;14.43;;;-0.90;99.90;;;;;;5069691;28;20055;-68
2021/01/16 03:59:24;;;;;;;27.58;15.48;;;-0.90;99.90;;;;;;5089320;28;20040;-67
2021/01/16 04:01:51;;;;;;;25.30;13.85;;;-0.90;99.90;;;;;;5091548;28;20070;-68
2021/01/16 04:04:17;;;;;;;28.77;15.25;;;-0.90;99.90;;;;;;5079735;28;20406;-68
2021/01/16 04:06:44;;;;;;;27.27;15.10;;;-0.90;99.90;;;;;;5091651;28;20075;-69
2021/01/16 04:09:11;;;;;;;28.65;15.10;;;-0.90;99.90;;;;;;5091676;28;20127;-67
2021/01/16 04:11:38;;;;;;;26.15;15.15;;;-0.90;99.90;;;;;;5092125;28;20066;-68
2021/01/16 04:14:05;;;;;;;28.23;15.63;;;-0.90;99.90;;;;;;5092035;28;20044;-67
2021/01/16 04:16:33;;;;;;;27.83;14.07;;;-0.90;99.90;;;;;;5092008;28;20143;-68
2021/01/16 04:19:00;;;;;;;27.48;14.63;;;-0.90;99.90;;;;;;5091618;28;20101;-68
2021/01/16 04:21:26;;;;;;;29.35;14.73;;;-0.90;99.90;;;;;;5085027;28;20055;-67
2021/01/16 04:23:52;;;;;;;27.00;14.63;;;-0.90;99.90;;;;;;5087277;28;20054;-67
2021/01/16 04:26:19;;;;;;;28.77;14.45;;;-0.90;99.90;;;;;;5091034;28;20058;-68
2021/01/16 04:28:45;;;;;;;29.98;15.57;;;-0.90;99.90;;;;;;5090203;28;20044;-67
2021/01/16 04:31:12;;;;;;;28.92;14.82;;;-1.00;99.90;;;;;;5091614;28;20584;-67
2021/01/16 04:33:38;;;;;;;28.40;14.77;;;-0.90;99.90;;;;;;5090558;28;20050;-68
2021/01/16 04:36:06;;;;;;;27.88;15.57;;;-1.00;99.90;;;;;;5091756;28;20123;-68
2021/01/16 04:38:32;;;;;;;29.00;14.32;;;-1.00;99.90;;;;;;5091579;28;20047;-68
2021/01/16 04:41:00;;;;;;;28.85;14.52;;;-1.00;99.90;;;;;;5091501;28;20652;-68
2021/01/16 04:43:27;;;;;;;27.85;14.73;;;-1.00;99.90;;;;;;5091945;28;20052;-67
2021/01/16 04:46:02;;;;;;;30.13;14.98;;;-1.00;99.90;;;;;;5072438;28;20589;-68
2021/01/16 04:48:31;;;;;;;26.60;14.38;;;-1.00;99.90;;;;;;5090056;28;20486;-67
2021/01/16 04:51:00;;;;;;;30.80;15.43;;;-0.90;99.90;;;;;;5076728;28;20088;-68
2021/01/16 04:53:38;;;;;;;28.10;14.00;;;-0.90;99.90;;;;;;5090111;28;20040;-67
2021/01/16 04:56:09;;;;;;;27.35;13.73;;;-0.90;99.90;;;;;;5088682;28;20131;-68
2021/01/16 04:58:38;;;;;;;27.35;14.05;;;-0.90;99.90;;;;;;5090753;28;20059;-68
2021/01/16 05:01:06;;;;;;;27.77;14.90;;;-0.90;99.90;;;;;;5090412;28;20052;-68
2021/01/16 05:03:35;;;;;;;27.23;14.25;;;-0.80;99.90;;;;;;5078678;28;20044;-69
2021/01/16 05:06:08;;;;;;;28.10;14.13;;;-0.80;99.90;;;;;;5090989;28;20071;-68
2021/01/16 05:08:39;;;;;;;26.98;13.35;;;-0.90;99.90;;;;;;5090841;28;20044;-68
2021/01/16 05:11:27;;;;;;;24.77;13.27;;;-0.90;99.90;;;;;;5091103;28;20044;-67
2021/01/16 05:14:09;;;;;;;24.60;13.20;;;-0.90;99.90;;;;;;5091247;28;20136;-68
2021/01/16 05:16:56;;;;;;;23.60;12.38;;;-0.90;99.90;;;;;;5090316;28;20142;-68
2021/01/16 05:19:32;;;;;;;24.33;12.38;;;-0.90;99.90;;;;;;5082589;28;20486;-67
2021/01/16 05:21:59;;;;;;;24.83;13.00;;;-0.90;99.90;;;;;;5083358;28;20048;-68
2021/01/16 05:24:26;;;;;;;26.35;12.32;;;-0.90;99.90;;;;;;5090508;28;20154;-68
2021/01/16 05:26:53;;;;;;;24.30;13.10;;;-0.90;99.90;;;;;;5089958;28;20048;-68
2021/01/16 05:29:23;;;;;;;23.90;12.13;;;-0.90;99.90;;;;;;5079150;28;20137;-68
2021/01/16 05:31:57;;;;;;;26.60;13.13;;;-1.00;99.90;;;;;;5096593;28;20047;-68
2021/01/16 05:34:25;;;;;;;24.30;12.65;;;-0.90;99.90;;;;;;5096239;28;20044;-67
2021/01/16 05:36:53;;;;;;;23.75;12.90;;;-1.00;99.90;;;;;;5097144;28;20048;-67
2021/01/16 05:39:22;;;;;;;26.25;13.55;;;-1.00;99.90;;;;;;5097265;28;20047;-67
2021/01/16 05:41:48;;;;;;;23.27;12.60;;;-1.00;99.90;;;;;;5094865;28;20063;-68
2021/01/16 05:44:15;;;;;;;26.58;12.82;;;-1.00;99.90;;;;;;5097833;28;20462;-67
2021/01/16 05:46:44;;;;;;;24.02;11.63;;;-1.00;99.90;;;;;;5093860;28;20064;-68
2021/01/16 05:49:18;;;;;;;26.48;13.18;;;-1.00;99.90;;;;;;5084405;28;20048;-68
2021/01/16 05:51:47;;;;;;;25.63;12.93;;;-1.00;99.90;;;;;;5096441;28;20040;-67
2021/01/16 05:54:16;;;;;;;25.90;13.25;;;-1.00;99.90;;;;;;5097522;28;20051;-68
2021/01/16 05:56:44;;;;;;;22.10;12.45;;;-1.00;99.90;;;;;;5090189;28;20044;-67
2021/01/16 05:59:15;;;;;;;26.23;12.90;;;-1.10;99.90;;;;;;5097872;28;20043;-67
2021/01/16 06:01:50;;;;;;;24.33;13.10;;;-1.10;99.90;;;;;;5096922;28;20543;-68
2021/01/16 06:04:19;;;;;;;23.70;12.00;;;-1.20;99.90;;;;;;5084850;28;20049;-67
2021/01/16 06:06:47;;;;;;;24.85;13.00;;;-1.20;99.90;;;;;;5097262;28;20047;-67
2021/01/16 06:09:18;;;;;;;25.83;12.98;;;-1.20;99.90;;;;;;5089813;28;20426;-68
2021/01/16 06:11:50;;;;;;;24.70;11.95;;;-1.30;99.90;;;;;;5088605;28;20078;-67
2021/01/16 06:14:18;;;;;;;22.92;12.13;;;-1.30;99.90;;;;;;5097412;28;20044;-67
2021/01/16 06:17:01;;;;;;;23.38;12.63;;;-1.20;99.90;;;;;;5112332;28;20429;-68
2021/01/16 06:19:29;;;;;;;23.75;12.77;;;-1.20;99.90;;;;;;5103371;28;20051;-68
2021/01/16 06:21:55;;;;;;;22.35;12.00;;;-1.20;99.90;;;;;;5081448;28;20044;-67
2021/01/16 06:24:25;;;;;;;25.33;12.07;;;-1.20;99.90;;;;;;5091710;28;20417;-67
2021/01/16 06:26:59;;;;;;;24.20;12.15;;;-1.30;99.90;;;;;;5096868;28;20040;-67
2021/01/16 06:29:36;;;;;;;24.20;12.60;;;-1.30;99.90;;;;;;5097317;28;20416;-67
2021/01/16 06:32:03;;;;;;;24.73;13.32;;;-1.30;99.90;;;;;;5096936;28;20058;-66
2021/01/16 06:34:33;;;;;;;24.92;13.05;;;-1.20;99.90;;;;;;5078013;28;20048;-67
2021/01/16 06:37:06;;;;;;;23.13;12.43;;;-1.20;99.90;;;;;;5091630;28;20044;-68
2021/01/16 06:39:47;;;;;;;25.23;12.27;;;-1.30;99.90;;;;;;5074100;28;20048;-68
2021/01/16 06:42:21;;;;;;;22.95;12.57;;;-1.30;99.90;;;;;;5089170;28;20504;-67
2021/01/16 06:44:47;;;;;;;23.15;12.10;;;-1.20;99.90;;;;;;5076041;28;20595;-68
2021/01/16 06:47:15;;;;;;;22.90;11.57;;;-1.20;99.90;;;;;;5092673;28;20059;-68
2021/01/16 06:49:48;;;;;;;20.30;11.15;;;-1.30;99.90;;;;;;5093787;28;20109;-67
2021/01/16 06:52:14;;;;;;;21.73;11.38;;;-1.30;99.90;;;;;;5093469;28;20414;-67
2021/01/16 06:54:41;;;;;;;23.92;12.48;;;-1.30;99.90;;;;;;5092854;28;20409;-67
2021/01/16 06:57:12;;;;;;;22.67;10.68;;;-1.30;99.90;;;;;;5085308;28;20050;-66
2021/01/16 06:59:41;;;;;;;19.77;10.88;;;-1.30;99.90;;;;;;5084263;28;20047;-66
2021/01/16 07:02:21;;;;;;;19.08;11.02;;;-1.30;99.90;;;;;;5075312;28;20047;-67
2021/01/16 07:05:00;;;;;;;21.13;11.30;;;-1.30;99.90;;;;;;5064958;28;20082;-68
2021/01/16 07:07:34;;;;;;;21.73;11.63;;;-1.30;99.90;;;;;;5075648;28;20465;-67
2021/01/16 07:10:10;;;;;;;19.15;10.57;;;-1.20;99.90;;;;;;5093343;28;20464;-67
2021/01/16 07:12:40;;;;;;;22.25;11.10;;;-1.20;99.90;;;;;;5108857;28;20044;-67
2021/01/16 07:15:10;;;;;;;19.80;10.65;;;-1.20;99.90;;;;;;5092825;28;20047;-67
2021/01/16 07:17:37;;;;;;;21.10;11.10;;;-1.30;99.90;;;;;;5093424;28;20055;-67
2021/01/16 07:20:06;;;;;;;21.23;10.48;;;-1.30;99.90;;;;;;5093188;28;20055;-67
2021/01/16 07:22:43;;;;;;;20.60;11.55;;;-1.30;99.90;;;;;;5093012;28;20052;-67
2021/01/16 07:25:12;;;;;;;19.58;10.75;;;-1.30;99.90;;;;;;5093210;28;20040;-67
2021/01/16 07:27:39;;;;;;;20.08;11.77;;;-1.30;99.90;;;;;;5079686;28;20041;-67
2021/01/16 07:30:10;;;;;;;21.05;11.40;;;-1.20;99.90;;;;;;5092768;28;20047;-66
2021/01/16 07:32:40;;;;;;;20.00;11.38;;;-1.20;99.90;;;;;;5091640;28;20123;-67
2021/01/16 07:35:13;;;;;;;20.17;10.98;;;-1.20;99.90;;;;;;5082270;28;20058;-67
2021/01/16 07:37:41;;;;;;;21.00;11.93;;;-1.10;99.90;;;;;;5093077;28;20382;-67
2021/01/16 07:40:28;;;;;;;;;;;-1.10;99.90;;;;;;5083298;28;20211;-67
2021/01/16 07:42:57;;;;;;;20.40;11.27;;;-1.00;99.90;;;;;;5061558;28;19999;-67
2021/01/16 07:45:33;;;;;;;19.60;10.73;;;-1.00;99.90;;;;;;5082985;28;20044;-67
2021/01/16 07:48:05;;;;;;;18.77;10.48;;;-1.00;99.90;;;;;;5076107;28;20048;-67
2021/01/16 07:50:34;;;;;;;17.63;9.27;;;-1.00;99.90;;;;;;5073518;28;20048;-68
2021/01/16 07:53:08;;;;;;;20.45;10.82;;;-1.00;99.90;;;;;;5075732;28;20041;-66
2021/01/16 07:55:34;;;;;;;19.30;10.23;;;-0.90;99.90;;;;;;5073315;28;20062;-65
2021/01/16 07:58:30;;;;;;;16.40;9.52;;;-0.90;99.90;;;;;;5080172;28;20044;-65
2021/01/16 08:00:59;;;;;;;20.65;11.63;;;-1.00;99.90;;;;;;5070341;28;20436;-66
2021/01/16 08:03:44;;;;;;;18.55;10.25;;;-0.90;99.90;;;;;;5092719;28;20134;-67
2021/01/16 08:06:35;;;;;;;19.85;10.40;;;-0.90;99.90;;;;;;5081587;28;20041;-68
2021/01/16 08:09:15;;;;;;;18.40;10.75;;;-0.90;99.90;;;;;;5082492;28;20059;-66
2021/01/16 08:11:51;;;;;;;19.55;10.55;;;-1.00;99.90;;;;;;5089164;28;20051;-65
2021/01/16 08:14:21;;;;;;;21.02;10.80;;;-1.00;99.90;;;;;;5090339;28;20052;-66
2021/01/16 08:16:56;;;;;;;21.50;11.30;;;-1.00;99.90;;;;;;5091377;28;20135;-66
2021/01/16 08:19:43;;;;;;;20.08;10.90;;;-1.00;99.90;;;;;;5087496;28;20140;-66
2021/01/16 08:22:17;;;;;;;18.17;10.13;;;-0.90;99.90;;;;;;5058881;28;20538;-67
2021/01/16 08:25:03;;;;;;;19.40;10.70;;;-0.90;99.90;;;;;;5080380;28;20044;-66
2021/01/16 08:27:31;;;;;;;21.10;10.80;;;-0.90;99.90;;;;;;5089541;28;20052;-67
2021/01/16 08:30:08;;;;;;;19.80;10.80;;;-0.90;99.90;;;;;;5073744;28;20086;-67
2021/01/16 08:32:53;;;;;;;19.50;10.15;;;-0.90;99.90;;;;;;5090744;28;20052;-68
2021/01/16 08:35:25;;;;;;;18.60;10.15;;;-0.90;99.90;;;;;;5091196;28;20050;-66
2021/01/16 08:37:52;;;;;;;26.85;13.13;;;-0.90;99.90;;;;;;5073214;28;20040;-66
2021/01/16 08:40:33;;;;;;;22.88;12.13;;;-0.90;99.90;;;;;;5090644;28;20486;-66
2021/01/16 08:43:00;;;;;;;17.80;9.93;;;-0.90;99.90;;;;;;5101145;28;20492;-66
2021/01/16 08:45:27;;;;;;;20.20;10.60;;;-0.90;99.90;;;;;;5070534;28;20055;-67
2021/01/16 08:47:56;;;;;;;18.65;10.63;;;-0.80;99.90;;;;;;5072313;28;20054;-67
2021/01/16 08:50:28;;;;;;;19.73;11.00;;;-0.80;99.90;;;;;;5070344;28;20498;-66
2021/01/16 08:52:54;;;;;;;21.42;10.77;;;-0.80;99.90;;;;;;5090386;28;20052;-67
2021/01/16 08:55:28;;;;;;;18.17;10.13;;;-0.90;99.90;;;;;;5089514;28;20128;-67
2021/01/16 08:58:08;;;;;;;23.65;12.90;;;-0.90;99.90;;;;;;5090042;28;20060;-66
2021/01/16 09:00:37;;;;;;;22.15;11.70;;;-0.80;99.90;;;;;;5090170;28;20047;-68
2021/01/16 09:03:05;;;;;;;19.83;11.55;;;-0.80;99.90;;;;;;5090341;28;20044;-68
2021/01/16 09:05:33;;;;;;;21.48;11.05;;;-0.80;99.90;;;;;;5083305;28;20051;-69
2021/01/16 09:08:01;;;;;;;20.27;10.80;;;-0.80;99.90;;;;;;5090946;28;20419;-67
2021/01/16 09:10:31;;;;;;;17.67;10.38;;;-0.90;99.90;;;;;;5091473;28;20047;-67
2021/01/16 09:12:59;;;;;;;17.37;10.43;;;-0.90;99.90;;;;;;5091511;28;20105;-68
2021/01/16 09:15:28;;;;;;;19.90;11.10;;;-0.90;99.90;;;;;;5091231;28;20486;-65
2021/01/16 09:18:01;;;;;;;21.33;11.70;;;-0.90;99.90;;;;;;5080202;28;20128;-68
2021/01/16 09:20:31;;;;;;;22.23;11.45;;;-0.90;99.90;;;;;;5083817;28;20044;-68
2021/01/16 09:23:18;;;;;;;22.45;11.35;;;-0.90;99.90;;;;;;5087252;28;20176;-67
2021/01/16 09:25:49;;;;;;;20.10;10.95;;;-1.00;99.90;;;;;;5089729;28;20418;-67
2021/01/16 09:28:16;;;;;;;20.27;10.73;;;-1.00;99.90;;;;;;5076737;28;20070;-67
2021/01/16 09:30:42;;;;;;;22.75;11.95;;;-0.90;99.90;;;;;;5090326;28;20038;-66
2021/01/16 09:33:24;;;;;;;27.05;12.88;;;-0.90;99.90;;;;;;5071123;28;20395;-66
2021/01/16 09:35:52;;;;;;;23.05;13.10;;;-0.80;99.90;;;;;;5090588;28;20074;-69
2021/01/16 09:38:20;;;;;;;25.60;12.15;;;-0.80;99.90;;;;;;5090606;28;20451;-68
2021/01/16 09:40:49;;;;;;;19.90;11.25;;;-0.70;99.90;;;;;;5090652;28;20402;-68
2021/01/16 09:43:20;;;;;;;18.38;10.32;;;-0.70;99.90;;;;;;5090309;28;20048;-67
2021/01/16 09:45:58;;;;;;;20.88;12.00;;;-0.70;99.90;;;;;;5090460;28;20124;-67
2021/01/16 09:48:30;;;;;;;23.98;11.65;;;-0.60;99.90;;;;;;5090377;28;20047;-68
2021/01/16 09:51:00;;;;;;;22.17;11.80;;;-0.50;99.90;;;;;;5072139;28;20070;-69
2021/01/16 09:53:27;;;;;;;24.58;13.35;;;-0.40;99.90;;;;;;5081306;28;20047;-68
2021/01/16 09:55:55;;;;;;;20.30;10.85;;;-0.50;99.90;;;;;;5072234;28;20051;-67
2021/01/16 09:58:40;;;;;;;20.02;10.85;;;-0.40;99.90;;;;;;5089383;28;20402;-68
2021/01/16 10:01:24;;;;;;;21.73;11.68;;;-0.30;99.90;;;;;;5090296;28;20458;-67
2021/01/16 10:03:55;;;;;;;20.48;10.88;;;-0.10;99.90;;;;;;5073303;28;20082;-67
2021/01/16 10:06:34;;;;;;;19.17;10.73;;;0.00;99.90;;;;;;5070394;28;20055;-67
2021/01/16 10:09:17;;;;;;;19.63;10.80;;;0.10;99.90;;;;;;5072515;28;20531;-67
2021/01/16 10:11:45;;;;;;;19.17;10.52;;;0.20;99.90;;;;;;5089865;28;20048;-69
2021/01/16 10:14:22;;;;;;;20.15;11.00;;;0.20;99.90;;;;;;5092850;28;20067;-68
2021/01/16 10:16:50;;;;;;;18.10;10.48;;;0.00;99.90;;;;;;5093598;28;20520;-67
2021/01/16 10:19:17;;;;;;;22.33;11.75;;;0.10;99.90;;;;;;5075592;28;20052;-67
2021/01/16 10:21:59;;;;;;;22.23;11.75;;;0.00;99.90;;;;;;5093745;28;20153;-68
2021/01/16 10:24:26;;;;;;;24.63;12.60;;;0.00;99.90;;;;;;5086455;28;20066;-66
2021/01/16 10:26:53;;;;;;;20.15;11.60;;;0.00;99.90;;;;;;5088938;28;20405;-66
2021/01/16 10:29:29;;;;;;;22.70;12.05;;;0.10;99.90;;;;;;5076224;28;20044;-67
2021/01/16 10:32:22;;;;;;;19.67;11.55;;;0.10;99.90;;;;;;5093741;28;20044;-67
2021/01/16 10:34:50;;;;;;;23.95;12.05;;;0.20;99.90;;;;;;5074051;28;20117;-67
2021/01/16 10:37:18;;;;;;;21.88;11.68;;;0.20;99.90;;;;;;5095941;28;20050;-68
2021/01/16 10:39:50;;;;;;;23.63;12.25;;;0.10;99.90;;;;;;5074878;28;20044;-67
2021/01/16 10:42:18;;;;;;;23.08;12.18;;;0.20;99.90;;;;;;5077200;28;20173;-67
2021/01/16 10:44:45;;;;;;;22.73;12.48;;;0.20;99.90;;;;;;5091908;28;20048;-67
2021/01/16 10:47:33;;;;;;;21.20;12.20;;;0.30;99.90;;;;;;5092641;28;20044;-68
2021/01/16 10:50:08;;;;;;;24.38;13.60;;;0.30;99.90;;;;;;5093364;28;20066;-67
2021/01/16 10:52:35;;;;;;;23.92;11.68;;;0.20;99.90;;;;;;5093048;28;20050;-67
2021/01/16 10:55:05;;;;;;;21.92;12.48;;;0.20;99.90;;;;;;5093201;28;20051;-67
2021/01/16 10:57:44;;;;;;;21.42;11.63;;;0.20;99.90;;;;;;5060959;28;20387;-68
2021/01/16 11:00:13;;;;;;;22.23;12.80;;;0.30;99.90;;;;;;5108512;28;20048;-68
2021/01/16 11:02:47;;;;;;;22.20;12.57;;;0.30;99.90;;;;;;5092574;28;20059;-67
2021/01/16 11:05:21;;;;;;;22.45;11.80;;;0.20;99.90;;;;;;5095230;28;20050;-66
2021/01/16 11:07:49;;;;;;;22.13;11.45;;;0.00;99.90;;;;;;5092375;28;20044;-68
2021/01/16 11:10:16;;;;;;;25.08;12.73;;;0.00;99.90;;;;;;5092549;28;20062;-68
2021/01/16 11:12:44;;;;;;;18.58;11.38;;;0.00;99.90;;;;;;5092799;28;20080;-68
2021/01/16 11:15:31;;;;;;;24.50;12.10;;;0.00;99.90;;;;;;5091598;28;20497;-68
2021/01/16 11:17:59;;;;;;;21.98;12.10;;;0.10;99.90;;;;;;5088018;28;20115;-69
2021/01/16 11:20:30;;;;;;;22.58;12.38;;;0.10;99.90;;;;;;5092708;28;20040;-69
2021/01/16 11:23:29;;;;;;;22.80;12.45;;;0.00;99.90;;;;;;5087651;28;20474;-70
2021/01/16 11:25:57;;;;;;;20.45;11.68;;;0.00;99.90;;;;;;5091826;28;20420;-69
2021/01/16 11:28:28;;;;;;;21.45;12.25;;;-0.10;99.90;;;;;;5091479;28;20486;-68
2021/01/16 11:31:06;;;;;;;22.65;12.23;;;-0.10;99.90;;;;;;5092350;28;20436;-70
2021/01/16 11:33:33;;;;;;;22.10;12.55;;;-0.10;99.90;;;;;;5091788;28;20056;-70
2021/01/16 11:36:03;;;;;;;21.55;12.63;;;0.00;99.90;;;;;;5092923;28;20519;-66
2021/01/16 11:38:40;;;;;;;21.83;12.20;;;0.00;99.90;;;;;;5092733;28;20048;-67
2021/01/16 11:41:08;;;;;;;22.63;12.13;;;0.00;99.90;;;;;;5073704;28;20036;-68
2021/01/16 11:43:36;;;;;;;20.20;11.60;;;0.10;99.90;;;;;;5092082;28;20497;-67
2021/01/16 11:46:04;;;;;;;19.92;11.55;;;0.20;99.90;;;;;;5091792;28;20048;-68
2021/01/16 11:48:32;;;;;;;24.40;12.32;;;0.10;99.90;;;;;;5089540;28;20048;-68
2021/01/16 11:51:16;;;;;;;19.75;11.13;;;-0.10;99.90;;;;;;5089552;28;20659;-68
2021/01/16 11:53:50;;;;;;;21.13;11.55;;;-0.10;99.90;;;;;;5092305;28;20047;-69
2021/01/16 11:56:21;;;;;;;20.83;12.05;;;0.00;99.90;;;;;;5074457;28;20047;-67
2021/01/16 11:58:50;;;;;;;18.90;11.70;;;0.00;99.90;;;;;;5090610;28;20494;-68
2021/01/16 12:01:18;;;;;;;21.58;12.18;;;0.00;99.90;;;;;;5072888;28;20052;-68
2021/01/16 12:03:44;;;;;;;20.58;12.27;;;-0.10;99.90;;;;;;5092118;28;20586;-68
2021/01/16 12:06:18;;;;;;;20.75;11.77;;;-0.10;99.90;;;;;;5091792;28;20069;-68
2021/01/16 12:08:47;;;;;;;22.73;12.30;;;-0.20;99.90;;;;;;5073463;28;20040;-68
2021/01/16 12:11:15;;;;;;;20.70;11.40;;;-0.10;99.90;;;;;;5091832;28;20060;-66
2021/01/16 12:13:48;;;;;;;22.33;12.50;;;-0.10;99.90;;;;;;5092237;28;20056;-66
2021/01/16 12:16:14;;;;;;;21.80;12.40;;;0.00;99.90;;;;;;5091165;28;20494;-69
2021/01/16 12:18:42;;;;;;;23.67;12.80;;;0.00;99.90;;;;;;5091842;28;20406;-68
2021/01/16 12:21:09;;;;;;;20.73;11.55;;;0.00;99.90;;;;;;5091412;28;20569;-68
2021/01/16 12:23:41;;;;;;;21.48;12.57;;;-0.10;99.90;;;;;;5084439;28;20047;-66
2021/01/16 12:26:13;;;;;;;20.33;12.20;;;-0.20;99.90;;;;;;5090267;28;20058;-67
2021/01/16 12:28:46;;;;;;;21.52;12.27;;;-0.30;99.90;;;;;;5078429;28;20059;-69
2021/01/16 12:31:20;;;;;;;22.15;12.43;;;-0.40;99.90;;;;;;5073299;28;20486;-67
2021/01/16 12:33:47;;;;;;;25.17;12.60;;;-0.60;99.90;;;;;;5090478;28;20050;-66
2021/01/16 12:36:14;;;;;;;24.30;12.35;;;-0.80;99.90;;;;;;5090226;28;20513;-66
2021/01/16 12:38:41;;;;;;;22.50;12.30;;;-0.80;99.90;;;;;;5088941;28;20044;-68
2021/01/16 12:41:07;;;;;;;24.55;11.93;;;-0.80;99.90;;;;;;5091355;28;20048;-70
2021/01/16 12:43:34;;;;;;;21.85;12.02;;;-0.80;99.90;;;;;;5092340;28;20054;-69
2021/01/16 12:46:06;;;;;;;20.75;12.02;;;-0.90;99.90;;;;;;5073047;28;20067;-69